Time;durP1;ratioP1;P1;durP2;ratioP2;P2;SDS_P1;SDS_P2;PMS_P1;PMS_P2;Temp;Humidity;BMP_temperature;BMP_pressure;BME280_temperature;BME280_humidity;BME280_pressure;Samples;Min_cycle;Max_cycle;Signal;HPM_P1;HPM_P2
2022/01/26 00:05:47;;;;;;;26.45;11.85;;;-7.60;98.30;;;;;;6204583;23;20012;-90
2022/01/26 00:06:36;;;;;;;26.58;11.77;;;-7.50;97.90;;;;;;6228238;23;20011;-91
2022/01/26 00:09:04;;;;;;;25.33;11.60;;;-7.50;97.90;;;;;;6192674;23;19997;-92
2022/01/26 00:11:31;;;;;;;23.27;10.55;;;-7.50;98.10;;;;;;6219075;23;20420;-91
2022/01/26 00:13:58;;;;;;;21.63;9.75;;;-7.50;98.20;;;;;;6191813;23;20005;-90
2022/01/26 00:16:27;;;;;;;23.63;11.48;;;-7.50;98.30;;;;;;6192354;23;20086;-91
2022/01/26 00:18:58;;;;;;;25.02;11.07;;;-7.40;98.30;;;;;;6191660;23;20331;-89
2022/01/26 00:21:48;;;;;;;25.23;11.32;;;-7.40;98.40;;;;;;6191859;23;20019;-90
2022/01/26 00:29:59;;;;;;;28.27;12.07;;;-7.30;98.30;;;;;;6175339;23;20016;-91
2022/01/26 00:40:50;;;;;;;25.25;10.95;;;-7.20;98.50;;;;;;6217018;23;20011;-89
2022/01/26 00:43:26;;;;;;;26.73;11.77;;;-7.20;98.30;;;;;;6217953;23;20000;-90
2022/01/26 00:45:56;;;;;;;24.20;11.80;;;-7.10;98.40;;;;;;6191614;23;20007;-89
2022/01/26 00:48:23;;;;;;;26.58;11.50;;;-7.10;98.20;;;;;;6217687;23;20008;-91
2022/01/26 00:50:52;;;;;;;27.85;13.05;;;-7.10;98.30;;;;;;6218207;23;20001;-91
2022/01/26 00:53:26;;;;;;;30.48;13.13;;;-7.10;98.40;;;;;;6191126;23;20011;-91
2022/01/26 00:55:52;;;;;;;22.83;10.95;;;-7.10;98.70;;;;;;6191729;23;20056;-90
2022/01/26 00:58:18;;;;;;;29.13;12.45;;;-7.10;98.30;;;;;;6191484;23;20000;-92
2022/01/26 01:00:43;;;;;;;26.23;11.30;;;-7.10;98.60;;;;;;6217492;23;20032;-91
2022/01/26 01:03:09;;;;;;;27.58;12.63;;;-7.10;98.60;;;;;;6190775;23;20416;-92
2022/01/26 01:05:41;;;;;;;24.10;11.25;;;-7.10;98.70;;;;;;6191289;23;20005;-92
2022/01/26 01:08:13;;;;;;;27.90;12.52;;;-7.10;98.70;;;;;;6217880;23;19993;-91
2022/01/26 01:10:43;;;;;;;27.88;13.43;;;-7.10;98.30;;;;;;6218000;23;20001;-92
2022/01/26 01:13:14;;;;;;;30.13;12.88;;;-7.00;98.20;;;;;;6194717;23;20031;-92
2022/01/26 01:15:40;;;;;;;29.38;13.63;;;-7.10;98.30;;;;;;6223827;23;20027;-90
2022/01/26 01:18:33;;;;;;;30.35;14.32;;;-7.10;98.50;;;;;;6228229;23;20001;-91
2022/01/26 01:29:17;;;;;;;25.40;12.00;;;-7.00;99.40;;;;;;6226488;23;20068;-92
2022/01/26 01:31:51;;;;;;;25.73;12.13;;;-7.00;99.30;;;;;;6191902;23;20422;-91
2022/01/26 01:34:20;;;;;;;25.63;12.88;;;-7.00;99.20;;;;;;6218221;23;20007;-92
2022/01/26 01:36:49;;;;;;;21.58;11.40;;;-6.90;99.30;;;;;;6217685;23;20009;-90
2022/01/26 01:39:17;;;;;;;24.05;12.05;;;-6.90;99.20;;;;;;6191272;23;20032;-92
2022/01/26 01:41:44;;;;;;;26.70;12.25;;;-6.90;99.10;;;;;;6191012;23;20057;-92
2022/01/26 01:44:12;;;;;;;26.10;12.35;;;-6.90;99.50;;;;;;6218994;23;20277;-91
2022/01/26 01:46:41;;;;;;;24.95;11.68;;;-6.90;99.70;;;;;;6219419;23;20083;-91
2022/01/26 01:49:08;;;;;;;25.92;11.68;;;-6.80;99.90;;;;;;6192413;23;20087;-91
2022/01/26 01:51:38;;;;;;;23.15;11.70;;;-6.80;99.70;;;;;;6205354;23;20001;-92
2022/01/26 01:54:16;;;;;;;26.80;11.98;;;-6.80;99.70;;;;;;6198735;23;20423;-92
2022/01/26 01:56:54;;;;;;;25.15;11.57;;;-6.70;99.20;;;;;;6217332;23;20332;-91
2022/01/26 01:59:21;;;;;;;23.27;11.13;;;-6.70;99.30;;;;;;6217890;23;19997;-91
2022/01/26 02:01:47;;;;;;;24.55;11.35;;;-6.70;99.40;;;;;;6217616;23;20069;-89
2022/01/26 02:04:12;;;;;;;25.02;11.38;;;-6.70;99.30;;;;;;6217599;23;20004;-92
2022/01/26 02:06:40;;;;;;;23.80;11.70;;;-6.70;99.60;;;;;;6217348;23;20025;-91
2022/01/26 02:09:06;;;;;;;26.35;13.05;;;-6.70;99.50;;;;;;6190692;23;20377;-91
2022/01/26 02:11:32;;;;;;;27.30;12.63;;;-6.60;99.40;;;;;;6190710;23;20001;-90
2022/01/26 02:14:09;;;;;;;25.45;12.43;;;-6.60;99.80;;;;;;6191169;23;20008;-92
2022/01/26 02:16:45;;;;;;;25.63;12.73;;;-6.60;99.80;;;;;;6217632;23;20000;-92
2022/01/26 03:04:59;;;;;;;27.23;13.20;;;-6.30;99.90;;;;;;6217348;23;20001;-92
2022/01/26 03:10:03;;;;;;;30.08;14.73;;;-6.30;99.90;;;;;;6216647;23;20028;-92
2022/01/26 03:12:38;;;;;;;30.17;13.32;;;-6.30;99.90;;;;;;6216555;23;20486;-92
2022/01/26 03:15:13;;;;;;;27.33;13.20;;;-6.30;99.90;;;;;;6189743;23;20001;-92
2022/01/26 03:20:13;;;;;;;28.88;12.80;;;-5.90;99.90;;;;;;6227505;23;20009;-92
2022/01/26 03:38:18;;;;;;;30.60;14.50;;;-6.20;99.90;;;;;;6232747;23;20427;-93
2022/01/26 03:40:45;;;;;;;31.50;13.73;;;-6.10;99.90;;;;;;6198967;23;20442;-93
2022/01/26 03:43:11;;;;;;;27.15;13.18;;;-6.20;99.90;;;;;;6192451;23;20001;-93
2022/01/26 03:45:36;;;;;;;24.98;12.07;;;-6.10;99.90;;;;;;6192275;23;20000;-90
2022/01/26 03:48:02;;;;;;;25.35;11.18;;;-6.10;99.90;;;;;;6221529;23;20001;-92
2022/01/26 03:50:28;;;;;;;23.30;11.75;;;-6.10;99.90;;;;;;6218743;23;20000;-91
2022/01/26 03:52:53;;;;;;;30.08;13.77;;;-6.10;99.90;;;;;;6192326;23;20008;-92
2022/01/26 03:55:19;;;;;;;26.33;12.98;;;-6.00;99.90;;;;;;6218472;23;20420;-92
2022/01/26 03:57:45;;;;;;;30.45;14.77;;;-6.00;99.90;;;;;;6218291;23;20015;-91
2022/01/26 04:00:11;;;;;;;27.65;13.95;;;-6.10;99.90;;;;;;6218274;23;20001;-91
2022/01/26 04:02:37;;;;;;;26.73;13.15;;;-6.10;99.90;;;;;;6192855;23;20450;-92
2022/01/26 04:05:07;;;;;;;27.50;13.20;;;-6.10;99.90;;;;;;6217838;23;20005;-92
2022/01/26 04:07:33;;;;;;;28.40;13.70;;;-6.00;99.90;;;;;;6218125;23;20477;-88
2022/01/26 04:10:08;;;;;;;25.88;12.00;;;-6.00;99.90;;;;;;6192071;23;20032;-90
2022/01/26 04:12:36;;;;;;;34.72;14.48;;;-6.00;99.90;;;;;;6192241;23;20020;-91
2022/01/26 04:15:11;;;;;;;29.02;13.10;;;-6.00;99.90;;;;;;6192123;23;20004;-91
2022/01/26 04:17:37;;;;;;;27.58;12.68;;;-6.00;99.90;;;;;;6192000;23;20435;-91
2022/01/26 04:20:04;;;;;;;27.80;12.38;;;-6.00;99.90;;;;;;6220332;23;20362;-91
2022/01/26 04:22:38;;;;;;;28.45;13.40;;;-6.00;99.90;;;;;;6218868;23;19997;-91
2022/01/26 04:25:06;;;;;;;22.98;11.27;;;-6.00;99.90;;;;;;6218561;23;20004;-92
2022/01/26 04:27:39;;;;;;;24.63;11.32;;;-5.90;99.90;;;;;;6196491;23;20043;-92
2022/01/26 04:30:06;;;;;;;25.63;12.23;;;-5.80;99.90;;;;;;6192676;23;20087;-92
2022/01/26 04:32:32;;;;;;;27.13;12.52;;;-5.80;99.90;;;;;;6217873;23;20051;-92
2022/01/26 04:34:58;;;;;;;24.40;12.13;;;-5.80;99.90;;;;;;6191469;23;20025;-92
2022/01/26 04:38:31;;;;;;;29.17;13.65;;;-5.80;99.90;;;;;;6191702;23;20005;-89
2022/01/26 04:40:18;;;;;;;27.00;12.75;;;-5.80;99.90;;;;;;6185578;23;20007;-91
2022/01/26 04:45:11;;;;;;;22.58;11.32;;;-5.70;99.90;;;;;;6218055;23;20023;-91
2022/01/26 04:47:37;;;;;;;22.23;11.13;;;-5.70;99.90;;;;;;6217197;23;20007;-91
2022/01/26 04:50:05;;;;;;;25.58;12.45;;;-5.70;99.90;;;;;;6191274;23;20004;-93
2022/01/26 04:52:30;;;;;;;24.27;11.48;;;-5.70;99.90;;;;;;6191502;23;20005;-90
2022/01/26 04:54:56;;;;;;;26.63;12.65;;;-5.70;99.90;;;;;;6217097;23;20450;-92
2022/01/26 04:57:22;;;;;;;25.48;12.27;;;-5.60;99.90;;;;;;6190694;23;20015;-92
2022/01/26 04:59:47;;;;;;;23.02;12.45;;;-5.60;99.90;;;;;;6217689;23;20028;-91
2022/01/26 05:02:13;;;;;;;26.75;12.52;;;-5.60;99.90;;;;;;6190794;23;20001;-91
2022/01/26 05:04:39;;;;;;;23.33;10.82;;;-5.60;99.90;;;;;;6217634;23;20001;-91
2022/01/26 05:07:05;;;;;;;23.00;10.95;;;-5.60;99.90;;;;;;6217107;23;19997;-91
2022/01/26 05:09:31;;;;;;;23.15;10.13;;;-5.50;99.90;;;;;;6217508;23;19997;-91
2022/01/26 05:11:57;;;;;;;21.63;11.05;;;-5.50;99.90;;;;;;6217477;23;20031;-90
2022/01/26 05:14:23;;;;;;;26.55;13.13;;;-5.50;99.90;;;;;;6217895;23;20079;-91
2022/01/26 05:16:49;;;;;;;27.52;12.90;;;-5.50;99.90;;;;;;6217378;23;20005;-90
2022/01/26 05:19:15;;;;;;;23.50;12.60;;;-5.50;99.90;;;;;;6190598;23;20078;-90
2022/01/26 05:21:42;;;;;;;26.65;13.35;;;-5.50;99.90;;;;;;6216978;23;20300;-90
2022/01/26 05:24:10;;;;;;;27.17;13.50;;;-5.40;99.90;;;;;;6217483;23;20005;-89
2022/01/26 05:26:40;;;;;;;27.20;12.63;;;-5.40;99.90;;;;;;6191054;23;20008;-92
2022/01/26 05:29:06;;;;;;;28.35;13.35;;;-5.40;99.90;;;;;;6217299;23;20328;-91
2022/01/26 05:31:32;;;;;;;29.75;13.68;;;-5.40;99.90;;;;;;6217015;23;20000;-89
2022/01/26 05:33:59;;;;;;;29.52;13.75;;;-5.30;99.90;;;;;;6190917;23;20091;-91
2022/01/26 05:36:25;;;;;;;28.08;12.75;;;-5.30;99.90;;;;;;6191073;23;20490;-90
2022/01/26 05:38:50;;;;;;;27.10;13.18;;;-5.20;99.90;;;;;;6217508;23;20001;-90
2022/01/26 05:41:16;;;;;;;33.13;13.73;;;-5.20;99.90;;;;;;6191656;23;20120;-90
2022/01/26 05:43:42;;;;;;;27.02;12.65;;;-5.20;99.90;;;;;;6193334;23;20004;-90
2022/01/26 05:46:13;;;;;;;26.15;12.77;;;-5.20;99.90;;;;;;6196587;23;20001;-89
2022/01/26 05:48:44;;;;;;;26.10;12.60;;;-5.20;99.90;;;;;;6235343;23;19996;-91
2022/01/26 05:51:11;;;;;;;25.38;12.55;;;-5.10;99.90;;;;;;6208763;23;19996;-91
2022/01/26 05:53:38;;;;;;;27.02;12.68;;;-5.10;99.90;;;;;;6191901;23;20091;-91
2022/01/26 05:56:05;;;;;;;24.92;12.30;;;-5.10;99.90;;;;;;6194078;23;20388;-91
2022/01/26 05:58:31;;;;;;;25.13;12.60;;;-5.10;99.90;;;;;;6212239;23;20012;-91
2022/01/26 06:00:59;;;;;;;23.25;11.48;;;-5.10;99.90;;;;;;6211189;23;19996;-91
2022/01/26 06:03:25;;;;;;;24.75;12.43;;;-5.00;99.90;;;;;;6211724;23;20096;-91
2022/01/26 06:05:53;;;;;;;24.83;11.77;;;-5.00;99.90;;;;;;6212920;23;20091;-93
2022/01/26 06:08:19;;;;;;;29.23;13.52;;;-5.00;99.90;;;;;;6189121;23;20001;-93
2022/01/26 06:10:45;;;;;;;32.20;14.57;;;-5.00;99.90;;;;;;6211836;23;20028;-90
2022/01/26 06:13:10;;;;;;;28.10;13.82;;;-4.90;99.90;;;;;;6212621;23;20031;-90
2022/01/26 06:15:36;;;;;;;28.95;13.27;;;-4.90;99.90;;;;;;6211102;23;20111;-89
2022/01/26 06:18:02;;;;;;;24.20;12.50;;;-4.90;99.90;;;;;;6185068;23;20412;-85
2022/01/26 06:20:27;;;;;;;24.50;13.18;;;-4.90;99.90;;;;;;6212280;23;20012;-90
2022/01/26 06:22:53;;;;;;;25.15;12.35;;;-4.90;99.90;;;;;;6212366;23;20424;-92
2022/01/26 06:25:20;;;;;;;29.60;14.65;;;-4.80;99.90;;;;;;6211454;23;20051;-90
2022/01/26 06:27:48;;;;;;;29.00;14.45;;;-4.80;99.90;;;;;;6185205;23;20004;-93
2022/01/26 06:30:13;;;;;;;30.75;14.52;;;-4.70;99.90;;;;;;6210767;23;20012;-92
2022/01/26 06:32:39;;;;;;;28.13;13.85;;;-4.70;99.90;;;;;;6183581;23;20058;-85
2022/01/26 06:35:09;;;;;;;24.77;12.55;;;-4.60;99.90;;;;;;6188191;23;20019;-86
2022/01/26 06:37:35;;;;;;;28.67;13.50;;;-4.60;99.90;;;;;;6185019;23;20355;-85
2022/01/26 06:40:01;;;;;;;26.25;12.95;;;-4.60;99.90;;;;;;6184027;23;20028;-87
2022/01/26 06:42:34;;;;;;;31.48;14.77;;;-4.50;99.90;;;;;;6212893;23;20443;-88
2022/01/26 06:49:51;;;;;;;29.23;13.93;;;-4.40;99.90;;;;;;6210672;23;20011;-86
2022/01/26 06:52:19;;;;;;;27.52;13.27;;;-4.40;99.90;;;;;;6211166;23;20023;-90
2022/01/26 06:54:45;;;;;;;28.83;13.77;;;-4.30;99.90;;;;;;6186009;23;20016;-85
2022/01/26 06:57:10;;;;;;;27.52;13.50;;;-4.30;99.90;;;;;;6188891;23;20435;-85
2022/01/26 06:59:36;;;;;;;30.27;14.00;;;-4.20;99.90;;;;;;6187789;23;20000;-85
2022/01/26 07:02:02;;;;;;;27.60;12.82;;;-4.20;99.90;;;;;;6204095;23;20054;-85
2022/01/26 07:04:28;;;;;;;24.05;13.20;;;-4.10;99.90;;;;;;6203155;23;20011;-88
2022/01/26 07:06:53;;;;;;;27.15;12.75;;;-4.10;99.90;;;;;;6187606;23;20446;-86
2022/01/26 07:09:19;;;;;;;27.17;13.55;;;-4.00;99.90;;;;;;6213874;23;20028;-89
2022/01/26 07:11:47;;;;;;;26.90;13.52;;;-3.90;99.90;;;;;;6188581;23;20437;-88
2022/01/26 07:14:22;;;;;;;35.47;17.02;;;-3.90;99.90;;;;;;6188704;23;20020;-93
2022/01/26 07:22:17;;;;;;;32.10;15.80;;;-3.70;99.30;;;;;;6218350;23;20745;-90
2022/01/26 07:24:43;;;;;;;30.85;16.13;;;-3.70;99.20;;;;;;6190379;23;19996;-87
2022/01/26 07:27:11;;;;;;;35.58;16.42;;;-3.60;99.00;;;;;;6187329;23;20001;-90
2022/01/26 07:29:37;;;;;;;30.80;15.50;;;-3.60;98.80;;;;;;6183615;23;20031;-85
2022/01/26 07:32:06;;;;;;;31.45;14.68;;;-3.60;99.30;;;;;;6210912;23;20005;-86
2022/01/26 07:34:37;;;;;;;29.85;14.98;;;-3.50;99.30;;;;;;6214268;23;20048;-86
2022/01/26 07:37:06;;;;;;;38.70;17.38;;;-3.50;99.10;;;;;;6214477;23;20007;-87
2022/01/26 07:39:45;;;;;;;32.03;15.98;;;-3.50;99.10;;;;;;6184275;23;20007;-87
2022/01/26 07:42:11;;;;;;;33.75;17.73;;;-3.50;99.10;;;;;;6182759;23;20063;-86
2022/01/26 07:44:37;;;;;;;29.83;14.88;;;-3.50;99.00;;;;;;6183699;23;20028;-87
2022/01/26 07:47:03;;;;;;;30.83;14.73;;;-3.50;99.70;;;;;;6183219;23;20012;-86
2022/01/26 07:49:29;;;;;;;32.05;15.85;;;-3.40;99.90;;;;;;6212864;23;20020;-86
2022/01/26 07:51:54;;;;;;;34.75;15.88;;;-3.40;99.70;;;;;;6182977;23;20107;-87
2022/01/26 07:54:21;;;;;;;36.40;16.67;;;-3.30;99.50;;;;;;6210519;23;20009;-86
2022/01/26 07:56:47;;;;;;;34.78;16.90;;;-3.30;99.30;;;;;;6211110;23;19996;-87
2022/01/26 07:59:14;;;;;;;33.40;16.15;;;-3.30;99.00;;;;;;6194845;23;20027;-87
2022/01/26 08:01:40;;;;;;;34.25;16.02;;;-3.20;99.20;;;;;;6192909;23;20020;-86
2022/01/26 08:04:10;;;;;;;33.20;16.02;;;-3.20;99.30;;;;;;6191885;23;20012;-90
2022/01/26 08:06:36;;;;;;;32.40;16.77;;;-3.20;99.00;;;;;;6198286;23;20004;-91
2022/01/26 08:09:06;;;;;;;35.35;17.58;;;-3.10;98.80;;;;;;6196129;23;20081;-91
2022/01/26 08:11:32;;;;;;;37.35;17.02;;;-3.10;98.70;;;;;;6185979;23;20428;-89
2022/01/26 08:13:58;;;;;;;34.97;16.20;;;-3.10;98.60;;;;;;6216077;23;20013;-86
2022/01/26 08:16:24;;;;;;;34.33;16.05;;;-3.00;98.60;;;;;;6186587;23;20005;-90
2022/01/26 08:18:50;;;;;;;33.72;16.48;;;-3.00;98.80;;;;;;6192879;23;20001;-88
2022/01/26 08:21:18;;;;;;;37.17;17.23;;;-3.00;99.00;;;;;;6202826;23;20008;-88
2022/01/26 08:23:44;;;;;;;37.47;19.40;;;-2.90;99.20;;;;;;6186132;23;20548;-90
2022/01/26 08:26:10;;;;;;;39.05;18.30;;;-2.90;99.10;;;;;;6187506;23;20007;-90
2022/01/26 08:28:41;;;;;;;47.35;21.85;;;-2.80;99.10;;;;;;6214607;23;20432;-88
2022/01/26 08:31:27;;;;;;;46.33;21.27;;;-2.70;99.10;;;;;;6167857;23;20495;-91
2022/01/26 08:33:56;;;;;;;48.70;22.10;;;-2.70;98.40;;;;;;6218798;23;20016;-86
2022/01/26 08:36:22;;;;;;;61.28;27.83;;;-2.60;98.40;;;;;;6193952;23;20048;-89
2022/01/26 08:38:49;;;;;;;100.63;42.08;;;-2.50;98.70;;;;;;6215296;23;20049;-89
2022/01/26 08:41:34;;;;;;;77.95;32.85;;;-2.50;98.80;;;;;;6224475;23;20004;-89
2022/01/26 08:43:59;;;;;;;91.50;40.22;;;-2.50;98.70;;;;;;6211620;23;20004;-90
2022/01/26 08:46:25;;;;;;;82.60;36.13;;;-2.50;99.00;;;;;;6211649;23;20055;-90
2022/01/26 08:48:51;;;;;;;84.55;36.53;;;-2.50;99.00;;;;;;6212106;23;20004;-88
2022/01/26 08:51:18;;;;;;;117.95;46.03;;;-2.40;99.00;;;;;;6184906;23;20190;-91
2022/01/26 08:53:45;;;;;;;91.80;40.13;;;-2.40;99.10;;;;;;6183771;23;20085;-91
2022/01/26 08:56:12;;;;;;;94.72;40.65;;;-2.30;99.20;;;;;;6219773;23;20013;-88
2022/01/26 08:58:38;;;;;;;86.30;38.15;;;-2.30;99.20;;;;;;6186394;23;20008;-93
2022/01/26 09:01:04;;;;;;;88.35;38.80;;;-2.20;99.20;;;;;;6209801;23;19997;-89
2022/01/26 09:03:34;;;;;;;78.18;34.05;;;-2.20;99.20;;;;;;6211248;23;19997;-89
2022/01/26 09:06:00;;;;;;;67.37;29.77;;;-2.10;98.70;;;;;;6184575;23;19996;-89
2022/01/26 09:08:26;;;;;;;63.90;29.50;;;-2.10;98.90;;;;;;6184360;23;20276;-91
2022/01/26 09:10:57;;;;;;;52.92;24.85;;;-2.00;98.50;;;;;;6185446;23;20096;-85
2022/01/26 09:13:22;;;;;;;50.53;25.00;;;-2.00;98.90;;;;;;6187618;23;20064;-89
2022/01/26 09:15:48;;;;;;;55.05;26.35;;;-2.00;99.40;;;;;;6187038;23;20039;-91
2022/01/26 09:18:19;;;;;;;62.00;28.40;;;-2.00;99.50;;;;;;6184832;23;20356;-89
2022/01/26 09:20:44;;;;;;;68.70;30.23;;;-2.00;99.40;;;;;;6214159;23;20008;-89
2022/01/26 09:23:10;;;;;;;71.03;32.53;;;-2.00;99.40;;;;;;6184365;23;20005;-90
2022/01/26 09:25:36;;;;;;;62.15;29.48;;;-2.00;99.50;;;;;;6184351;23;20015;-88
2022/01/26 09:28:02;;;;;;;64.65;30.45;;;-2.00;99.40;;;;;;6211696;23;19996;-93
2022/01/26 09:30:28;;;;;;;69.05;30.45;;;-2.00;99.50;;;;;;6185301;23;20366;-89
2022/01/26 09:32:53;;;;;;;61.83;28.55;;;-2.00;99.60;;;;;;6210457;23;19996;-89
2022/01/26 09:35:19;;;;;;;55.50;26.95;;;-2.00;99.80;;;;;;6213351;23;20012;-90
2022/01/26 09:37:45;;;;;;;56.42;25.60;;;-2.00;99.70;;;;;;6188700;23;20001;-90
2022/01/26 09:40:11;;;;;;;55.05;26.05;;;-1.90;99.90;;;;;;6195716;23;20024;-86
2022/01/26 09:42:40;;;;;;;54.17;24.70;;;-1.90;99.90;;;;;;6197260;23;20441;-86
2022/01/26 09:45:07;;;;;;;59.25;26.10;;;-1.80;99.90;;;;;;6214157;23;20004;-88
2022/01/26 09:47:33;;;;;;;56.47;26.60;;;-1.80;99.50;;;;;;6189206;23;20016;-89
2022/01/26 09:49:58;;;;;;;60.67;27.83;;;-1.80;99.10;;;;;;6187213;23;20301;-89
2022/01/26 09:52:41;;;;;;;59.50;27.30;;;-1.80;99.00;;;;;;6184385;23;20000;-87
2022/01/26 09:55:09;;;;;;;61.75;29.38;;;-1.80;99.00;;;;;;6210892;23;20356;-90
2022/01/26 09:57:36;;;;;;;56.45;27.50;;;-1.80;98.60;;;;;;6183916;23;20075;-89
2022/01/26 10:00:04;;;;;;;69.10;30.55;;;-1.90;98.30;;;;;;6186482;23;19997;-85
2022/01/26 10:02:32;;;;;;;65.95;28.95;;;-1.90;98.40;;;;;;6214995;23;19996;-86
2022/01/26 10:05:06;;;;;;;61.58;29.35;;;-1.90;98.60;;;;;;6182406;23;20013;-87
2022/01/26 10:15:31;;;;;;;61.63;28.92;;;-1.80;98.60;;;;;;6208565;23;20347;-85
2022/01/26 10:18:14;;;;;;;57.90;26.58;;;-1.80;98.60;;;;;;6182136;23;20004;-85
2022/01/26 10:20:57;;;;;;;58.42;26.80;;;-1.80;98.40;;;;;;6182334;23;20048;-84
2022/01/26 10:23:44;;;;;;;55.95;26.80;;;-1.70;98.40;;;;;;6209477;23;20008;-86
2022/01/26 10:26:13;;;;;;;50.42;23.40;;;-1.70;98.10;;;;;;6181156;23;19996;-84
2022/01/26 10:28:47;;;;;;;54.78;25.30;;;-1.70;98.40;;;;;;6182248;23;19996;-85
2022/01/26 10:31:19;;;;;;;64.15;30.30;;;-1.60;98.10;;;;;;6182869;23;20143;-85
2022/01/26 10:34:10;;;;;;;63.03;27.83;;;-1.60;97.50;;;;;;6208353;23;20001;-85
2022/01/26 10:36:35;;;;;;;67.75;30.17;;;-1.60;97.00;;;;;;6182817;23;20439;-84
2022/01/26 10:39:08;;;;;;;69.30;31.55;;;-1.70;97.30;;;;;;6182501;23;20000;-85
2022/01/26 10:41:39;;;;;;;69.00;32.13;;;-1.70;97.40;;;;;;6209015;23;20004;-85
2022/01/26 10:44:06;;;;;;;64.68;30.60;;;-1.80;97.50;;;;;;6208442;23;20067;-85
2022/01/26 10:46:39;;;;;;;67.15;30.95;;;-1.80;97.80;;;;;;6184651;23;20036;-84
2022/01/26 10:49:42;;;;;;;65.57;30.05;;;-1.80;98.00;;;;;;6184855;23;20027;-85
2022/01/26 10:52:38;;;;;;;75.27;33.90;;;-1.80;98.10;;;;;;6209715;23;20311;-83
2022/01/26 10:55:09;;;;;;;75.75;34.03;;;-1.90;98.50;;;;;;6182729;23;20039;-82
2022/01/26 10:57:36;;;;;;;75.55;32.80;;;-2.00;99.00;;;;;;6182981;23;20048;-84
2022/01/26 11:00:05;;;;;;;73.05;33.60;;;-2.00;99.00;;;;;;6211023;23;20000;-83
2022/01/26 11:02:33;;;;;;;70.30;31.83;;;-2.00;99.20;;;;;;6183522;23;20035;-82
2022/01/26 11:05:00;;;;;;;65.70;29.88;;;-2.10;99.60;;;;;;6183829;23;20412;-84
2022/01/26 11:07:37;;;;;;;68.90;27.48;;;-2.00;99.60;;;;;;6210901;23;20051;-84
2022/01/26 11:10:11;;;;;;;60.97;27.38;;;-2.00;99.80;;;;;;6192228;23;20001;-84
2022/01/26 11:12:44;;;;;;;64.28;28.73;;;-1.90;99.80;;;;;;6216765;23;20431;-87
2022/01/26 11:15:26;;;;;;;64.15;28.73;;;-1.90;99.80;;;;;;6216960;23;20016;-85
2022/01/26 11:17:52;;;;;;;61.08;27.10;;;-1.80;99.50;;;;;;6194578;23;20026;-85
2022/01/26 11:20:31;;;;;;;61.38;27.80;;;-1.80;98.90;;;;;;6184066;23;20634;-84
2022/01/26 11:23:00;;;;;;;61.95;29.67;;;-1.80;98.60;;;;;;6184046;23;20439;-84
2022/01/26 11:25:28;;;;;;;58.45;26.52;;;-1.80;98.40;;;;;;6183216;23;20015;-85
2022/01/26 11:27:55;;;;;;;55.58;26.08;;;-1.80;98.40;;;;;;6183003;23;20477;-85
2022/01/26 11:30:31;;;;;;;63.33;28.23;;;-1.70;98.30;;;;;;6184094;23;20020;-85
2022/01/26 11:33:03;;;;;;;65.43;29.80;;;-1.80;98.00;;;;;;6184034;23;20365;-84
2022/01/26 11:35:37;;;;;;;71.45;32.65;;;-1.80;98.20;;;;;;6183623;23;20008;-86
2022/01/26 11:46:33;;;;;;;50.60;24.13;;;-2.00;98.50;;;;;;6212444;23;20510;-85
2022/01/26 11:49:05;;;;;;;61.17;27.35;;;-2.00;98.50;;;;;;6185212;23;20005;-83
2022/01/26 11:51:57;;;;;;;68.80;30.90;;;-2.00;98.70;;;;;;6185289;23;20013;-86
2022/01/26 11:54:27;;;;;;;68.03;30.60;;;-2.00;99.60;;;;;;6186867;23;20020;-85
2022/01/26 11:57:08;;;;;;;68.63;32.03;;;-2.10;99.30;;;;;;6185619;23;20008;-87
2022/01/26 11:59:36;;;;;;;67.60;31.20;;;-2.10;99.90;;;;;;6185599;23;20068;-85
2022/01/26 12:02:19;;;;;;;67.13;29.33;;;-2.20;99.90;;;;;;6184655;23;20004;-85
2022/01/26 12:05:09;;;;;;;71.32;30.83;;;-2.20;99.90;;;;;;6208561;23;20028;-84
2022/01/26 12:07:45;;;;;;;65.90;28.80;;;-2.20;99.90;;;;;;6184263;23;20309;-84
2022/01/26 12:10:18;;;;;;;59.47;25.55;;;-2.20;99.90;;;;;;6184376;23;20027;-86
2022/01/26 12:12:44;;;;;;;59.03;26.70;;;-2.10;99.90;;;;;;6184986;23;20067;-86
2022/01/26 12:15:16;;;;;;;59.03;25.80;;;-2.00;99.70;;;;;;6211066;23;20012;-85
2022/01/26 12:18:18;;;;;;;58.92;26.85;;;-1.90;99.30;;;;;;6183511;23;20008;-85
2022/01/26 12:35:50;;;;;;;56.90;24.42;;;-1.90;94.70;;;;;;6211201;23;20066;-86
2022/01/26 12:43:43;;;;;;;51.08;24.02;;;-2.00;94.70;;;;;;6211219;23;20056;-88
2022/01/26 12:46:23;;;;;;;44.63;20.73;;;-2.00;94.40;;;;;;6211285;23;20007;-85
2022/01/26 12:48:57;;;;;;;42.42;19.92;;;-2.00;94.80;;;;;;6208270;23;20003;-85
2022/01/26 12:51:25;;;;;;;45.50;21.80;;;-1.90;94.80;;;;;;6184166;23;20454;-86
2022/01/26 12:54:03;;;;;;;48.05;22.00;;;-1.90;94.90;;;;;;6190106;23;20031;-84
2022/01/26 12:56:31;;;;;;;51.88;23.05;;;-1.90;93.70;;;;;;6185005;23;20111;-84
2022/01/26 12:59:02;;;;;;;51.38;23.20;;;-2.00;94.30;;;;;;6210554;23;20001;-85
2022/01/26 13:01:28;;;;;;;46.35;22.70;;;-2.00;94.30;;;;;;6184422;23;20001;-86
2022/01/26 13:04:00;;;;;;;51.60;23.73;;;-2.00;94.40;;;;;;6210501;23;20009;-87
2022/01/26 13:06:28;;;;;;;45.38;21.10;;;-2.10;94.60;;;;;;6183523;23;20004;-85
2022/01/26 13:08:56;;;;;;;49.63;23.77;;;-2.10;94.90;;;;;;6209440;23;20000;-85
2022/01/26 13:11:36;;;;;;;47.05;21.83;;;-2.10;94.90;;;;;;6209557;23;20379;-86
2022/01/26 13:14:18;;;;;;;53.85;25.02;;;-2.10;94.90;;;;;;6208736;23;20004;-85
2022/01/26 13:17:34;;;;;;;52.10;22.88;;;-2.20;95.20;;;;;;6182698;23;20483;-86
2022/01/26 13:20:24;;;;;;;49.47;23.33;;;-2.20;95.30;;;;;;6183826;23;19996;-84
2022/01/26 13:23:16;;;;;;;48.97;23.50;;;-2.20;95.50;;;;;;6210314;23;19996;-85
2022/01/26 13:28:22;;;;;;;46.35;21.75;;;-2.20;95.70;;;;;;6210433;23;20023;-87
2022/01/26 13:36:36;;;;;;;54.72;23.25;;;-2.20;96.00;;;;;;6126033;23;20310;-87
2022/01/26 13:39:19;;;;;;;54.53;24.83;;;-2.10;96.10;;;;;;6176502;23;20004;-89
2022/01/26 13:42:14;;;;;;;55.83;25.70;;;-2.10;96.20;;;;;;6182546;23;20008;-86
2022/01/26 13:50:08;;;;;;;51.03;23.45;;;-2.20;96.70;;;;;;6211892;23;20051;-86
2022/01/26 13:52:39;;;;;;;54.57;23.77;;;-2.20;97.20;;;;;;6185003;23;20092;-87
2022/01/26 13:57:52;;;;;;;47.72;23.17;;;-2.30;97.20;;;;;;6213101;23;20011;-86
2022/01/26 14:00:21;;;;;;;51.03;21.88;;;-2.20;97.40;;;;;;6211682;23;20110;-87
2022/01/26 14:02:49;;;;;;;49.97;22.55;;;-2.20;97.80;;;;;;6182705;23;20008;-88
2022/01/26 14:05:15;;;;;;;48.67;21.85;;;-2.30;97.70;;;;;;6208785;23;20001;-88
2022/01/26 14:07:41;;;;;;;48.25;21.67;;;-2.30;97.70;;;;;;6210496;23;20390;-88
2022/01/26 14:10:07;;;;;;;54.53;24.50;;;-2.30;97.90;;;;;;6182207;23;20009;-87
2022/01/26 14:12:35;;;;;;;52.50;24.08;;;-2.30;98.20;;;;;;6208862;23;20076;-87
2022/01/26 14:15:05;;;;;;;55.72;23.67;;;-2.30;98.50;;;;;;6184454;23;20016;-87
2022/01/26 14:18:11;;;;;;;47.13;20.90;;;-2.30;98.50;;;;;;6182831;23;20079;-88
2022/01/26 14:25:29;;;;;;;41.20;19.10;;;-2.30;98.30;;;;;;6212956;23;19997;-90
2022/01/26 14:28:01;;;;;;;48.40;21.63;;;-2.30;98.10;;;;;;6209600;23;20001;-89
2022/01/26 14:50:54;;;;;;;45.70;20.05;;;-2.20;98.60;;;;;;6210424;23;20011;-89
2022/01/26 14:52:57;;;;;;;48.35;22.05;;;-2.30;98.90;;;;;;6209933;23;20019;-88
2022/01/26 14:55:25;;;;;;;46.13;21.73;;;-2.30;99.00;;;;;;6208153;23;20023;-88
2022/01/26 15:01:02;;;;;;;46.00;20.15;;;-2.30;99.00;;;;;;6210899;23;20012;-88
2022/01/26 15:40:50;;;;;;;39.85;18.80;;;-2.30;99.80;;;;;;6212274;23;20051;-88
2022/01/26 16:07:38;;;;;;;47.08;19.65;;;-2.30;99.90;;;;;;6213964;23;19996;-87
2022/01/26 16:21:09;;;;;;;38.20;17.58;;;-2.30;99.90;;;;;;6211478;23;20011;-86
2022/01/26 16:26:42;;;;;;;40.78;18.92;;;-2.30;99.90;;;;;;6210441;23;20387;-85
2022/01/26 17:43:12;;;;;;;38.83;17.50;;;-2.40;99.90;;;;;;6209187;23;20023;-79
2022/01/26 18:18:13;;;;;;;41.55;18.65;;;-2.50;99.90;;;;;;6206750;23;20004;-83
2022/01/26 18:40:10;;;;;;;31.85;13.90;;;-2.60;99.90;;;;;;6202214;23;20075;-84
